createdAt,value
2023-03-16T00:02:24.495Z,99942.75
2023-03-16T00:04:51.800Z,99944.88
2023-03-16T00:07:18.672Z,99956.59
2023-03-16T00:09:45.989Z,99951.75
2023-03-16T00:12:17.009Z,99961.16
2023-03-16T00:14:45.076Z,99961.16
2023-03-16T00:17:19.433Z,99964.06
2023-03-16T00:19:46.968Z,99971.34
2023-03-16T00:22:15.012Z,99969.97
2023-03-16T00:24:44.739Z,99976.94
2023-03-16T00:27:14.819Z,99970.13
2023-03-16T00:29:47.258Z,99969.69
2023-03-16T00:32:16.379Z,99976.94
2023-03-16T00:34:44.409Z,99976.22
2023-03-16T00:37:14.149Z,99971.19
2023-03-16T00:39:45.958Z,99973.03
2023-03-16T00:42:14.467Z,99975.91
2023-03-16T00:44:44.830Z,99977.88
2023-03-16T00:47:15.243Z,99980.44
2023-03-16T00:49:45.741Z,99978.63
2023-03-16T00:52:16.170Z,99980.75
2023-03-16T00:54:44.118Z,99971.03
2023-03-16T00:57:12.604Z,99981.97
2023-03-16T00:59:39.963Z,99984.38
2023-03-16T01:02:07.524Z,99986.53
2023-03-16T01:04:36.507Z,99989.41
2023-03-16T01:07:04.499Z,99990.75
2023-03-16T01:09:37.173Z,99992.09
2023-03-16T01:12:08.433Z,99997.72
2023-03-16T01:14:35.635Z,100002.84
2023-03-16T01:17:04.552Z,99997.69
2023-03-16T01:19:35.721Z,100001.47
2023-03-16T01:22:04.470Z,99992.47
2023-03-16T01:24:34.100Z,99998.84
2023-03-16T01:27:01.367Z,100002.75
2023-03-16T01:29:28.672Z,99997.13
2023-03-16T01:31:57.628Z,100001.50
2023-03-16T01:34:24.768Z,100009.69
2023-03-16T01:36:52.061Z,100005.91
2023-03-16T01:39:29.839Z,100016.03
2023-03-16T01:41:57.003Z,100012.84
2023-03-16T01:44:35.260Z,100017.53
2023-03-16T01:47:06.071Z,100013.50
2023-03-16T01:49:36.467Z,100008.50
2023-03-16T01:52:09.364Z,100009.09
2023-03-16T01:54:40.823Z,100015.75
2023-03-16T01:57:15.843Z,100011.09
2023-03-16T02:00:09.166Z,100007.28
2023-03-16T02:02:43.707Z,100008.19
2023-03-16T02:05:20.922Z,100005.44
2023-03-16T02:07:49.400Z,100014.22
2023-03-16T02:10:18.223Z,100016.94
2023-03-16T02:12:45.782Z,100017.09
2023-03-16T02:15:14.323Z,100014.16
2023-03-16T02:17:43.013Z,100016.59
2023-03-16T02:20:30.861Z,100022.94
2023-03-16T02:22:58.148Z,100025.03
2023-03-16T02:25:52.098Z,100028.78
2023-03-16T02:28:18.936Z,100023.47
2023-03-16T02:30:47.287Z,100025.22
2023-03-16T02:33:16.014Z,100026.13
2023-03-16T02:35:44.519Z,100023.09
2023-03-16T02:38:13.827Z,100025.81
2023-03-16T02:40:58.199Z,100027.03
2023-03-16T02:43:28.719Z,100020.50
2023-03-16T02:46:05.488Z,100026.38
2023-03-16T02:48:42.902Z,100028.34
2023-03-16T02:51:11.445Z,100030.34
2023-03-16T02:53:38.865Z,100027.59
2023-03-16T02:56:09.390Z,100034.56
2023-03-16T02:58:37.375Z,100033.19
2023-03-16T03:01:09.724Z,100040.16
2023-03-16T03:03:39.315Z,100049.97
2023-03-16T03:06:06.873Z,100051.63
2023-03-16T03:08:36.368Z,100051.75
2023-03-16T03:11:06.639Z,100061.88
2023-03-16T03:13:33.570Z,100060.38
2023-03-16T03:16:01.854Z,100069.59
2023-03-16T03:18:29.014Z,100066.88
2023-03-16T03:20:56.110Z,100072.03
2023-03-16T03:23:26.035Z,100072.91
2023-03-16T03:25:57.301Z,100074.44
2023-03-16T03:28:24.265Z,100077.72
2023-03-16T03:30:51.788Z,100076.50
2023-03-16T03:33:22.441Z,100080.44
2023-03-16T03:35:58.110Z,100080.78
2023-03-16T03:38:26.798Z,100083.50
2023-03-16T03:40:59.601Z,100093.31
2023-03-16T03:43:29.924Z,100098.44
2023-03-16T03:45:58.335Z,100095.06
2023-03-16T03:48:25.447Z,100096.72
2023-03-16T03:50:52.845Z,100098.34
2023-03-16T03:53:42.691Z,100095.13
2023-03-16T03:56:19.502Z,100090.09
2023-03-16T03:58:46.442Z,100088.69
2023-03-16T04:01:20.064Z,100081.88
2023-03-16T04:03:47.205Z,100091.66
2023-03-16T04:06:15.880Z,100090.88
2023-03-16T04:08:43.041Z,100091.34
2023-03-16T04:11:14.485Z,100096.91
2023-03-16T04:13:41.349Z,100095.81
2023-03-16T04:16:09.528Z,100104.13
2023-03-16T04:18:42.182Z,100099.09
2023-03-16T04:21:16.859Z,100104.97
2023-03-16T04:23:46.596Z,100105.09
2023-03-16T04:26:14.263Z,100110.53
2023-03-16T04:28:44.020Z,100107.81
2023-03-16T04:31:14.681Z,100112.84
2023-03-16T04:33:44.805Z,100108.22
2023-03-16T04:36:12.530Z,100114.34
2023-03-16T04:38:43.167Z,100116.81
2023-03-16T04:41:11.644Z,100123.66
2023-03-16T04:43:48.145Z,100122.59
2023-03-16T04:46:20.447Z,100128.47
2023-03-16T04:48:47.391Z,100130.75
2023-03-16T04:51:15.563Z,100136.09
2023-03-16T04:53:51.554Z,100136.84
2023-03-16T04:56:30.471Z,100130.66
2023-03-16T04:59:02.369Z,100134.88
2023-03-16T05:01:38.386Z,100152.84
2023-03-16T05:04:06.821Z,100143.50
2023-03-16T05:06:37.061Z,100146.97
2023-03-16T05:09:12.465Z,100155.16
2023-03-16T05:11:40.719Z,100160.91
2023-03-16T05:14:10.345Z,100168.66
2023-03-16T05:16:52.301Z,100171.56
2023-03-16T05:19:20.677Z,100170.81
2023-03-16T05:21:48.429Z,100168.31
2023-03-16T05:24:16.187Z,100172.53
2023-03-16T05:26:43.549Z,100179.09
2023-03-16T05:29:13.198Z,100179.25
2023-03-16T05:31:40.516Z,100186.59
2023-03-16T05:34:14.384Z,100182.19
2023-03-16T05:36:41.745Z,100181.75
2023-03-16T05:39:13.455Z,100181.19
2023-03-16T05:41:45.443Z,100191.19
2023-03-16T05:44:25.381Z,100184.28
2023-03-16T05:47:05.009Z,100187.78
2023-03-16T05:49:34.290Z,100198.00
2023-03-16T05:52:05.786Z,100199.22
2023-03-16T05:54:34.999Z,100208.03
2023-03-16T05:57:02.932Z,100212.00
2023-03-16T05:59:29.840Z,100207.38
2023-03-16T06:01:58.357Z,100217.44
2023-03-16T06:04:27.076Z,100222.16
2023-03-16T06:06:54.723Z,100218.34
2023-03-16T06:09:25.462Z,100221.31
2023-03-16T06:11:53.414Z,100230.75
2023-03-16T06:14:21.243Z,100225.84
2023-03-16T06:16:51.927Z,100221.00
2023-03-16T06:19:20.298Z,100230.25
2023-03-16T06:21:52.051Z,100241.72
2023-03-16T06:24:19.054Z,100248.41
2023-03-16T06:26:46.332Z,100251.06
2023-03-16T06:29:16.928Z,100261.03
2023-03-16T06:31:45.508Z,100263.41
2023-03-16T06:34:12.494Z,100262.38
2023-03-16T06:36:41.156Z,100257.16
2023-03-16T06:39:12.242Z,100259.56
2023-03-16T06:41:48.437Z,100259.16
2023-03-16T06:44:17.069Z,100271.88
2023-03-16T06:46:54.405Z,100270.72
2023-03-16T06:49:21.397Z,100278.09
2023-03-16T06:51:49.422Z,100280.06
2023-03-16T06:54:16.385Z,100286.75
2023-03-16T06:56:45.908Z,100292.84
2023-03-16T06:59:13.577Z,100295.09
2023-03-16T07:01:44.487Z,100301.88
2023-03-16T07:04:12.842Z,100307.63
2023-03-16T07:06:41.615Z,100306.63
2023-03-16T07:09:09.308Z,100311.50
2023-03-16T07:11:36.602Z,100310.16
2023-03-16T07:14:03.690Z,100319.66
2023-03-16T07:16:32.722Z,100320.03
2023-03-16T07:19:02.726Z,100319.16
2023-03-16T07:21:29.972Z,100320.59
2023-03-16T07:23:57.201Z,100321.13
2023-03-16T07:26:29.471Z,100328.34
2023-03-16T07:29:01.845Z,100327.31
2023-03-16T07:31:30.128Z,100323.41
2023-03-16T07:34:00.016Z,100322.53
2023-03-16T07:36:36.008Z,100326.22
2023-03-16T07:39:04.719Z,100328.56
2023-03-16T07:41:32.779Z,100331.72
2023-03-16T07:44:14.530Z,100334.13
2023-03-16T07:46:41.901Z,100338.50
2023-03-16T07:49:10.495Z,100337.69
2023-03-16T07:51:39.017Z,100344.41
2023-03-16T07:54:08.054Z,100338.59
2023-03-16T07:56:48.297Z,100338.47
2023-03-16T07:59:26.482Z,100340.53
2023-03-16T08:01:53.681Z,100348.03
2023-03-16T08:04:20.818Z,100351.50
2023-03-16T08:06:48.504Z,100348.81
2023-03-16T08:09:15.460Z,100350.91
2023-03-16T08:11:43.812Z,100350.19
2023-03-16T08:14:11.140Z,100355.97
2023-03-16T08:17:13.417Z,100357.13
2023-03-16T08:19:40.711Z,100359.25
2023-03-16T08:22:10.734Z,100359.69
2023-03-16T08:24:43.671Z,100363.38
2023-03-16T08:27:16.192Z,100367.53
2023-03-16T08:29:51.556Z,100372.22
2023-03-16T08:32:19.464Z,100363.91
2023-03-16T08:34:48.537Z,100366.38
2023-03-16T08:37:18.717Z,100356.00
2023-03-16T08:39:46.697Z,100359.84
2023-03-16T08:42:17.430Z,100365.38
2023-03-16T08:44:48.851Z,100359.84
2023-03-16T08:47:17.041Z,100356.81
2023-03-16T08:49:45.123Z,100358.81
2023-03-16T08:52:15.951Z,100356.31
2023-03-16T08:54:59.858Z,100354.06
2023-03-16T08:57:29.564Z,100366.63
2023-03-16T08:59:59.076Z,100364.91
2023-03-16T09:02:26.742Z,100368.38
2023-03-16T09:04:53.888Z,100370.66
2023-03-16T09:07:21.079Z,100372.66
2023-03-16T09:09:48.012Z,100370.66
2023-03-16T09:12:15.368Z,100374.41
2023-03-16T09:14:46.069Z,100371.38
2023-03-16T09:17:15.541Z,100375.38
2023-03-16T09:19:52.036Z,100363.84
2023-03-16T09:22:20.870Z,100364.59
2023-03-16T09:24:48.679Z,100372.13
2023-03-16T09:27:16.260Z,100372.69
2023-03-16T09:29:43.642Z,100376.16
2023-03-16T09:32:11.229Z,100371.88
2023-03-16T09:34:39.324Z,100365.19
2023-03-16T09:37:06.568Z,100372.63
2023-03-16T09:39:33.511Z,100373.41
2023-03-16T09:42:08.650Z,100362.19
2023-03-16T09:44:42.625Z,100365.06
2023-03-16T09:47:12.004Z,100367.31
2023-03-16T09:49:45.514Z,100365.59
2023-03-16T09:52:36.311Z,100361.34
2023-03-16T09:55:12.322Z,100364.09
2023-03-16T09:57:41.900Z,100355.81
2023-03-16T10:00:21.346Z,100360.59
2023-03-16T10:03:09.965Z,100367.38
2023-03-16T10:05:38.713Z,100364.25
2023-03-16T10:08:18.662Z,100355.78
2023-03-16T10:10:47.048Z,100359.06
2023-03-16T10:13:29.950Z,100366.63
2023-03-16T10:15:57.771Z,100364.78
2023-03-16T10:18:28.683Z,100370.38
2023-03-16T10:20:58.577Z,100373.13
2023-03-16T10:23:26.267Z,100365.38
2023-03-16T10:25:54.528Z,100368.47
2023-03-16T10:28:21.805Z,100362.28
2023-03-16T10:30:50.350Z,100360.34
2023-03-16T10:33:26.713Z,100360.09
2023-03-16T10:35:54.153Z,100362.34
2023-03-16T10:38:30.951Z,100361.06
2023-03-16T10:40:57.952Z,100375.03
2023-03-16T10:43:25.706Z,100360.44
2023-03-16T10:45:58.854Z,100362.25
2023-03-16T10:48:28.626Z,100370.59
2023-03-16T10:50:57.570Z,100364.56
2023-03-16T10:53:32.875Z,100357.53
2023-03-16T10:56:02.290Z,100363.09
2023-03-16T10:58:30.896Z,100358.56
2023-03-16T11:00:58.255Z,100363.06
2023-03-16T11:03:38.944Z,100361.06
2023-03-16T11:06:07.698Z,100351.00
2023-03-16T11:08:37.453Z,100349.78
2023-03-16T11:11:09.391Z,100354.53
2023-03-16T11:13:38.727Z,100347.22
2023-03-16T11:16:24.126Z,100348.47
2023-03-16T11:18:58.969Z,100358.75
2023-03-16T11:21:38.816Z,100357.56
2023-03-16T11:24:11.062Z,100353.75
2023-03-16T11:26:40.823Z,100354.03
2023-03-16T11:29:14.102Z,100345.97
2023-03-16T11:31:49.344Z,100342.66
2023-03-16T11:34:18.091Z,100338.19
2023-03-16T11:36:51.389Z,100340.44
2023-03-16T11:39:21.450Z,100331.16
2023-03-16T11:41:51.834Z,100336.16
2023-03-16T11:44:27.689Z,100330.38
2023-03-16T11:47:07.892Z,100315.03
2023-03-16T11:49:35.249Z,100313.00
2023-03-16T11:52:25.282Z,100317.78
2023-03-16T11:54:55.550Z,100323.56
2023-03-16T11:57:41.633Z,100315.00
2023-03-16T12:00:09.486Z,100311.72
2023-03-16T12:02:45.284Z,100311.22
2023-03-16T12:05:16.900Z,100305.94
2023-03-16T12:07:51.756Z,100300.31
2023-03-16T12:10:28.118Z,100302.63
2023-03-16T12:12:58.339Z,100297.38
2023-03-16T12:15:48.350Z,100304.94
2023-03-16T12:18:15.416Z,100288.34
2023-03-16T12:20:52.037Z,100297.91
2023-03-16T12:23:27.955Z,100289.28
2023-03-16T12:25:59.929Z,100282.28
2023-03-16T12:28:27.985Z,100278.28
2023-03-16T12:30:55.360Z,100282.53
2023-03-16T12:33:34.424Z,100280.28
2023-03-16T12:36:17.027Z,100275.25
2023-03-16T12:38:44.037Z,100273.22
2023-03-16T12:41:38.113Z,100286.81
2023-03-16T12:44:23.854Z,100277.28
2023-03-16T12:47:00.672Z,100273.16
2023-03-16T12:49:32.159Z,100272.44
2023-03-16T12:52:01.605Z,100264.69
2023-03-16T12:54:29.143Z,100267.97
2023-03-16T12:57:09.769Z,100268.47
2023-03-16T12:59:42.941Z,100271.00
2023-03-16T13:02:14.156Z,100265.19
2023-03-16T13:04:42.905Z,100263.19
2023-03-16T13:07:19.420Z,100248.09
2023-03-16T13:09:49.496Z,100255.38
2023-03-16T13:12:29.206Z,100249.09
2023-03-16T13:14:57.077Z,100250.03
2023-03-16T13:17:28.895Z,100243.78
2023-03-16T13:19:59.044Z,100238.78
2023-03-16T13:22:28.092Z,100246.59
2023-03-16T13:24:57.667Z,100245.59
2023-03-16T13:27:30.222Z,100248.38
2023-03-16T13:29:59.053Z,100251.59
2023-03-16T13:32:30.269Z,100256.16
2023-03-16T13:34:58.953Z,100252.13
2023-03-16T13:37:28.497Z,100248.34
2023-03-16T13:40:05.299Z,100249.84
2023-03-16T13:42:33.794Z,100238.25
2023-03-16T13:45:11.216Z,100238.50
2023-03-16T13:47:42.643Z,100230.69
2023-03-16T13:50:16.751Z,100233.97
2023-03-16T13:52:50.590Z,100230.94
2023-03-16T13:55:19.553Z,100246.03
2023-03-16T13:57:48.491Z,100230.94
2023-03-16T14:00:20.508Z,100235.47
2023-03-16T14:02:51.994Z,100236.22
2023-03-16T14:05:24.513Z,100236.00
2023-03-16T14:07:52.678Z,100227.69
2023-03-16T14:10:21.004Z,100226.19
2023-03-16T14:12:55.694Z,100231.22
2023-03-16T14:15:26.057Z,100225.72
2023-03-16T14:17:53.981Z,100222.94
2023-03-16T14:20:22.425Z,100223.69
2023-03-16T14:22:56.118Z,100226.22
2023-03-16T14:25:25.449Z,100226.44
2023-03-16T14:27:59.955Z,100218.84
2023-03-16T14:30:30.350Z,100225.34
2023-03-16T14:33:02.148Z,100224.31
2023-03-16T14:35:33.601Z,100224.59
2023-03-16T14:38:21.867Z,100215.28
2023-03-16T14:40:58.509Z,100219.56
2023-03-16T14:43:33.805Z,100205.97
2023-03-16T14:46:04.091Z,100216.28
2023-03-16T14:48:31.811Z,100211.25
2023-03-16T14:51:00.139Z,100210.22
2023-03-16T14:53:28.730Z,100217.28
2023-03-16T14:55:56.664Z,100215.78
2023-03-16T14:58:24.101Z,100220.03
2023-03-16T15:00:54.785Z,100214.00
2023-03-16T15:03:33.125Z,100215.72
2023-03-16T15:06:01.417Z,100214.72
2023-03-16T15:08:32.127Z,100212.91
2023-03-16T15:11:01.988Z,100211.16
2023-03-16T15:13:42.504Z,100213.69
2023-03-16T15:16:14.082Z,100218.16
2023-03-16T15:18:42.051Z,100218.16
2023-03-16T15:21:13.511Z,100220.09
2023-03-16T15:23:42.869Z,100217.34
2023-03-16T15:26:11.231Z,100214.81
2023-03-16T15:28:38.839Z,100214.78
2023-03-16T15:31:06.294Z,100214.78
2023-03-16T15:33:33.854Z,100222.00
2023-03-16T15:36:04.672Z,100219.22
2023-03-16T15:38:33.522Z,100218.13
2023-03-16T15:41:00.481Z,100211.59
2023-03-16T15:43:29.661Z,100207.34
2023-03-16T15:46:00.027Z,100207.31
2023-03-16T15:48:27.345Z,100204.78
2023-03-16T15:51:07.632Z,100203.75
2023-03-16T15:53:43.681Z,100202.25
2023-03-16T15:56:12.187Z,100208.31
2023-03-16T15:58:41.952Z,100211.34
2023-03-16T16:01:17.430Z,100212.31
2023-03-16T16:03:44.935Z,100214.31
2023-03-16T16:06:12.140Z,100212.03
2023-03-16T16:08:39.296Z,100215.31
2023-03-16T16:11:10.192Z,100209.53
2023-03-16T16:13:44.641Z,100205.00
2023-03-16T16:16:13.642Z,100209.97
2023-03-16T16:18:41.276Z,100207.66
2023-03-16T16:21:14.357Z,100214.09
2023-03-16T16:23:41.670Z,100215.84
2023-03-16T16:26:20.777Z,100221.53
2023-03-16T16:28:48.301Z,100222.44
2023-03-16T16:31:16.239Z,100209.63
2023-03-16T16:33:44.480Z,100225.38
2023-03-16T16:36:14.479Z,100224.00
2023-03-16T16:38:41.795Z,100225.13
2023-03-16T16:41:09.703Z,100221.69
2023-03-16T16:43:44.732Z,100218.66
2023-03-16T16:46:15.411Z,100221.59
2023-03-16T16:48:44.273Z,100222.97
2023-03-16T16:51:17.885Z,100224.78
2023-03-16T16:53:46.829Z,100223.97
2023-03-16T16:56:16.226Z,100232.69
2023-03-16T16:58:44.312Z,100215.03
2023-03-16T17:01:15.979Z,100216.72
2023-03-16T17:03:43.908Z,100220.72
2023-03-16T17:06:18.359Z,100227.41
2023-03-16T17:08:46.956Z,100229.13
2023-03-16T17:11:17.370Z,100223.72
2023-03-16T17:13:46.970Z,100225.16
2023-03-16T17:16:16.688Z,100224.00
2023-03-16T17:18:45.564Z,100225.06
2023-03-16T17:21:14.706Z,100231.88
2023-03-16T17:23:42.028Z,100237.75
2023-03-16T17:26:23.441Z,100238.59
2023-03-16T17:28:56.278Z,100235.31
2023-03-16T17:31:25.768Z,100242.88
2023-03-16T17:33:53.996Z,100234.31
2023-03-16T17:36:21.862Z,100229.44
2023-03-16T17:38:50.285Z,100239.75
2023-03-16T17:41:23.300Z,100234.66
2023-03-16T17:43:51.712Z,100231.53
2023-03-16T17:46:20.802Z,100232.03
2023-03-16T17:48:51.380Z,100242.25
2023-03-16T17:51:21.891Z,100238.97
2023-03-16T17:53:51.338Z,100240.69
2023-03-16T17:56:23.188Z,100243.91
2023-03-16T17:58:54.131Z,100244.66
2023-03-16T18:01:23.906Z,100234.94
2023-03-16T18:03:51.970Z,100233.84
2023-03-16T18:06:21.253Z,100242.69
2023-03-16T18:08:49.567Z,100244.41
2023-03-16T18:11:21.477Z,100240.16
2023-03-16T18:13:50.341Z,100242.44
2023-03-16T18:16:23.763Z,100246.41
2023-03-16T18:18:52.561Z,100253.84
2023-03-16T18:21:22.233Z,100253.50
2023-03-16T18:23:50.466Z,100249.88
2023-03-16T18:26:22.361Z,100251.69
2023-03-16T18:28:55.548Z,100249.25
2023-03-16T18:31:25.621Z,100245.91
2023-03-16T18:33:58.404Z,100261.84
2023-03-16T18:36:29.307Z,100262.13
2023-03-16T18:38:58.883Z,100262.59
2023-03-16T18:41:31.058Z,100252.41
2023-03-16T18:44:00.610Z,100258.34
2023-03-16T18:46:37.329Z,100272.44
2023-03-16T18:49:15.154Z,100267.28
2023-03-16T18:51:43.428Z,100271.06
2023-03-16T18:54:19.013Z,100272.13
2023-03-16T18:56:49.309Z,100267.69
2023-03-16T18:59:19.931Z,100266.44
2023-03-16T19:01:48.546Z,100262.03
2023-03-16T19:04:24.532Z,100258.81
2023-03-16T19:06:54.686Z,100260.28
2023-03-16T19:09:23.897Z,100261.75
2023-03-16T19:11:52.451Z,100260.84
2023-03-16T19:14:22.804Z,100253.69
2023-03-16T19:16:52.985Z,100252.72
2023-03-16T19:19:25.909Z,100257.69
2023-03-16T19:22:03.612Z,100257.53
2023-03-16T19:24:37.110Z,100251.09
2023-03-16T19:27:10.265Z,100254.41
2023-03-16T19:29:38.789Z,100261.63
2023-03-16T19:32:17.994Z,100259.47
2023-03-16T19:34:47.538Z,100270.19
2023-03-16T19:37:16.380Z,100266.84
2023-03-16T19:39:45.912Z,100274.84
2023-03-16T19:42:22.130Z,100267.97
2023-03-16T19:44:54.024Z,100283.72
2023-03-16T19:47:24.935Z,100279.56
2023-03-16T19:49:53.495Z,100277.28
2023-03-16T19:52:23.349Z,100280.59
2023-03-16T19:54:52.935Z,100277.22
2023-03-16T19:57:21.624Z,100283.56
2023-03-16T19:59:53.751Z,100277.44
2023-03-16T20:02:29.438Z,100279.56
2023-03-16T20:04:57.783Z,100283.25
2023-03-16T20:07:27.650Z,100276.41
2023-03-16T20:09:56.123Z,100277.41
2023-03-16T20:12:28.042Z,100279.16
2023-03-16T20:14:57.230Z,100275.16
2023-03-16T20:17:30.467Z,100278.09
2023-03-16T20:20:00.183Z,100265.78
2023-03-16T20:22:29.040Z,100262.53
2023-03-16T20:24:58.441Z,100273.56
2023-03-16T20:27:28.148Z,100267.31
2023-03-16T20:29:58.501Z,100263.50
2023-03-16T20:32:29.035Z,100250.22
2023-03-16T20:34:57.466Z,100253.81
2023-03-16T20:37:27.701Z,100245.44
2023-03-16T20:39:57.306Z,100258.41
2023-03-16T20:42:31.645Z,100256.88
2023-03-16T20:45:00.342Z,100263.22
2023-03-16T20:47:28.695Z,100261.78
2023-03-16T20:50:00.266Z,100259.31
2023-03-16T20:52:30.982Z,100259.31
2023-03-16T20:54:59.977Z,100264.84
2023-03-16T20:57:27.672Z,100262.88
2023-03-16T20:59:55.809Z,100269.53
2023-03-16T21:02:30.761Z,100263.41
2023-03-16T21:05:00.843Z,100265.06
2023-03-16T21:07:28.662Z,100263.97
2023-03-16T21:10:01.850Z,100263.63
2023-03-16T21:12:30.990Z,100262.97
2023-03-16T21:14:59.635Z,100269.28
2023-03-16T21:17:30.258Z,100261.78
2023-03-16T21:19:58.204Z,100255.66
2023-03-16T21:22:32.198Z,100269.16
2023-03-16T21:24:59.690Z,100261.75
2023-03-16T21:27:34.321Z,100273.44
2023-03-16T21:30:19.689Z,100268.66
2023-03-16T21:32:49.177Z,100255.88
2023-03-16T21:35:17.429Z,100250.44
2023-03-16T21:37:45.531Z,100252.41
2023-03-16T21:40:18.085Z,100246.41
2023-03-16T21:42:45.466Z,100239.97
2023-03-16T21:45:13.518Z,100241.63
2023-03-16T21:47:40.747Z,100230.84
2023-03-16T21:50:14.266Z,100230.41
2023-03-16T21:52:44.144Z,100228.03
2023-03-16T21:55:30.074Z,100223.00
2023-03-16T21:57:58.007Z,100227.81
2023-03-16T22:00:25.825Z,100224.84
2023-03-16T22:02:54.120Z,100233.56
2023-03-16T22:05:35.469Z,100235.31
2023-03-16T22:08:07.495Z,100229.13
2023-03-16T22:10:34.735Z,100239.25
2023-03-16T22:13:02.443Z,100244.34
2023-03-16T22:15:30.207Z,100246.41
2023-03-16T22:17:57.960Z,100244.91
2023-03-16T22:20:27.276Z,100246.63
2023-03-16T22:22:58.414Z,100247.94
2023-03-16T22:25:26.654Z,100255.34
2023-03-16T22:27:53.958Z,100250.91
2023-03-16T22:30:22.635Z,100252.06
2023-03-16T22:32:51.355Z,100237.28
2023-03-16T22:35:27.322Z,100230.00
2023-03-16T22:37:55.622Z,100227.38
2023-03-16T22:40:28.453Z,100239.13
2023-03-16T22:42:58.288Z,100230.97
2023-03-16T22:45:30.216Z,100228.75
2023-03-16T22:47:58.063Z,100232.03
2023-03-16T22:50:27.481Z,100223.97
2023-03-16T22:52:58.410Z,100224.53
2023-03-16T22:55:32.546Z,100227.81
2023-03-16T22:58:06.544Z,100229.44
2023-03-16T23:00:33.885Z,100231.94
2023-03-16T23:03:00.814Z,100226.25
2023-03-16T23:05:29.410Z,100226.69
2023-03-16T23:07:58.952Z,100231.59
2023-03-16T23:10:28.557Z,100216.91
2023-03-16T23:12:55.962Z,100221.91
2023-03-16T23:15:25.293Z,100217.53
2023-03-16T23:17:54.964Z,100214.81
2023-03-16T23:20:24.402Z,100217.97
2023-03-16T23:22:52.893Z,100217.75
2023-03-16T23:25:20.619Z,100222.91
2023-03-16T23:27:47.638Z,100219.84
2023-03-16T23:30:25.697Z,100219.28
2023-03-16T23:32:56.792Z,100222.25
2023-03-16T23:35:25.322Z,100222.03
2023-03-16T23:37:53.154Z,100221.81
2023-03-16T23:40:21.632Z,100229.66
2023-03-16T23:42:49.114Z,100224.75
2023-03-16T23:45:23.025Z,100224.97
2023-03-16T23:47:51.102Z,100226.94
2023-03-16T23:50:20.981Z,100218.88
2023-03-16T23:52:47.838Z,100214.19
2023-03-16T23:55:19.089Z,100216.47
2023-03-16T23:57:46.415Z,100220.06
